KQA351 HKJK-HKMO
Flight info
| Callsign | KQA351 |
|---|---|
| Flight time | 1h 5m |
| Altitude | 29000 |
| Route | ATUDU1D UVOVA UQ135 NEREV NEREV3A |
| Aircraft | B738/M-SDE2E3FGHIRWXY/LB1 |
Departure
| Time | 2026-04-22 10:44 |
|---|---|
| Airport | Jomo Kenyatta International Airport (HKJK) |
Arrival
| Time | 2026-04-22 11:49 |
|---|---|
| Airport | Moi International Airport (HKMO) |
| Time | Latitude | Longitude | Altitude | Speed | Heading |
|---|---|---|---|---|---|
| 2026-04-22 09:26 | -1.32862 | 36.92486 | 5313 ft | 0 kts | 175° |
| 2026-04-22 10:31 | -1.32855 | 36.92486 | 5323 ft | 4 kts | 176° |
| 2026-04-22 10:31 | -1.32828 | 36.92485 | 5317 ft | 4 kts | 181° |
| 2026-04-22 10:31 | -1.32801 | 36.92487 | 5315 ft | 4 kts | 190° |
| 2026-04-22 10:31 | -1.32776 | 36.92494 | 5316 ft | 4 kts | 214° |
| 2026-04-22 10:32 | -1.32762 | 36.92510 | 5313 ft | 1 kts | 264° |
| 2026-04-22 10:32 | -1.32762 | 36.92514 | 5313 ft | 0 kts | 264° |
| 2026-04-22 10:38 | -1.32763 | 36.92508 | 5313 ft | 2 kts | 264° |
| 2026-04-22 10:38 | -1.32764 | 36.92491 | 5318 ft | 3 kts | 264° |
| 2026-04-22 10:38 | -1.32767 | 36.92462 | 5323 ft | 5 kts | 263° |
| 2026-04-22 10:39 | -1.32776 | 36.92424 | 5321 ft | 6 kts | 256° |
| 2026-04-22 10:39 | -1.32793 | 36.92378 | 5318 ft | 8 kts | 244° |
| 2026-04-22 10:39 | -1.32824 | 36.92330 | 5318 ft | 8 kts | 232° |
| 2026-04-22 10:39 | -1.32854 | 36.92277 | 5319 ft | 9 kts | 261° |
| 2026-04-22 10:40 | -1.32820 | 36.92225 | 5323 ft | 9 kts | 320° |
| 2026-04-22 10:40 | -1.32787 | 36.92178 | 5322 ft | 9 kts | 277° |
| 2026-04-22 10:40 | -1.32808 | 36.92125 | 5324 ft | 8 kts | 235° |
| 2026-04-22 10:40 | -1.32844 | 36.92078 | 5327 ft | 9 kts | 234° |
| 2026-04-22 10:41 | -1.32882 | 36.92027 | 5323 ft | 9 kts | 234° |
| 2026-04-22 10:41 | -1.32900 | 36.91969 | 5332 ft | 9 kts | 269° |
| 2026-04-22 10:41 | -1.32891 | 36.91908 | 5333 ft | 9 kts | 280° |
| 2026-04-22 10:41 | -1.32882 | 36.91850 | 5334 ft | 8 kts | 278° |
| 2026-04-22 10:42 | -1.32874 | 36.91792 | 5334 ft | 8 kts | 275° |
| 2026-04-22 10:42 | -1.32870 | 36.91736 | 5336 ft | 8 kts | 290° |
| 2026-04-22 10:42 | -1.32827 | 36.91695 | 5337 ft | 9 kts | 322° |
| 2026-04-22 10:42 | -1.32774 | 36.91657 | 5339 ft | 9 kts | 332° |
| 2026-04-22 10:43 | -1.32724 | 36.91681 | 5339 ft | 10 kts | 60° |
| 2026-04-22 10:43 | -1.32680 | 36.91753 | 5332 ft | 14 kts | 57° |
| 2026-04-22 10:43 | -1.32498 | 36.91989 | 5322 ft | 82 kts | 53° |
| 2026-04-22 10:43 | -1.32019 | 36.92651 | 5317 ft | 151 kts | 53° |
| 2026-04-22 10:44 | -1.31314 | 36.93601 | 5730 ft | 178 kts | 55° |
| 2026-04-22 10:44 | -1.30619 | 36.94625 | 6769 ft | 179 kts | 54° |
| 2026-04-22 10:44 | -1.29920 | 36.95691 | 7557 ft | 189 kts | 74° |
| 2026-04-22 10:44 | -1.29808 | 36.96993 | 7812 ft | 207 kts | 91° |
| 2026-04-22 10:45 | -1.29736 | 36.98540 | 7988 ft | 231 kts | 85° |
| 2026-04-22 10:45 | -1.29571 | 37.00079 | 8789 ft | 215 kts | 84° |
| 2026-04-22 10:45 | -1.29372 | 37.01400 | 10056 ft | 181 kts | 81° |
| 2026-04-22 10:45 | -1.29139 | 37.02612 | 10913 ft | 175 kts | 79° |
| 2026-04-22 10:46 | -1.28867 | 37.03843 | 11220 ft | 196 kts | 78° |
| 2026-04-22 10:46 | -1.28537 | 37.05241 | 11399 ft | 215 kts | 77° |
| 2026-04-22 10:46 | -1.28207 | 37.06569 | 11985 ft | 206 kts | 76° |
| 2026-04-22 10:46 | -1.27990 | 37.07408 | 12613 ft | 189 kts | 76° |
| 2026-04-22 10:47 | -1.27703 | 37.08495 | 13398 ft | 178 kts | 75° |
| 2026-04-22 10:48 | -1.27372 | 37.09725 | 13784 ft | 193 kts | 75° |
| 2026-04-22 10:48 | -1.26928 | 37.11099 | 13687 ft | 225 kts | 69° |
| 2026-04-22 10:48 | -1.26213 | 37.12596 | 13745 ft | 249 kts | 60° |
| 2026-04-22 10:48 | -1.25174 | 37.14049 | 14022 ft | 268 kts | 50° |
| 2026-04-22 10:49 | -1.23746 | 37.15414 | 14014 ft | 301 kts | 38° |
| 2026-04-22 10:49 | -1.21862 | 37.16506 | 14163 ft | 325 kts | 27° |
| 2026-04-22 10:49 | -1.19904 | 37.17751 | 14300 ft | 343 kts | 48° |
| 2026-04-22 10:49 | -1.18726 | 37.19816 | 14775 ft | 348 kts | 76° |
| 2026-04-22 10:50 | -1.18655 | 37.22211 | 15428 ft | 349 kts | 102° |
| 2026-04-22 10:50 | -1.19672 | 37.24415 | 16029 ft | 355 kts | 128° |
| 2026-04-22 10:50 | -1.21595 | 37.25980 | 16625 ft | 364 kts | 153° |
| 2026-04-22 10:50 | -1.24056 | 37.26618 | 17229 ft | 371 kts | 171° |
| 2026-04-22 10:51 | -1.26564 | 37.27182 | 17772 ft | 371 kts | 152° |
| 2026-04-22 10:51 | -1.28029 | 37.28050 | 18152 ft | 369 kts | 142° |
| 2026-04-22 10:51 | -1.30091 | 37.29589 | 18706 ft | 372 kts | 141° |
| 2026-04-22 10:51 | -1.32172 | 37.31144 | 19190 ft | 375 kts | 141° |
| 2026-04-22 10:52 | -1.34276 | 37.32702 | 19677 ft | 379 kts | 141° |
| 2026-04-22 10:52 | -1.36413 | 37.34275 | 20119 ft | 383 kts | 142° |
| 2026-04-22 10:52 | -1.38569 | 37.35854 | 20639 ft | 385 kts | 141° |
| 2026-04-22 10:52 | -1.40733 | 37.37436 | 21194 ft | 386 kts | 142° |
| 2026-04-22 10:53 | -1.42908 | 37.39024 | 21709 ft | 388 kts | 142° |
| 2026-04-22 10:53 | -1.45088 | 37.40614 | 22325 ft | 387 kts | 142° |
| 2026-04-22 10:53 | -1.47257 | 37.42196 | 22963 ft | 385 kts | 142° |
| 2026-04-22 10:53 | -1.49419 | 37.43773 | 23600 ft | 384 kts | 142° |
| 2026-04-22 10:54 | -1.51577 | 37.45347 | 24131 ft | 384 kts | 142° |
| 2026-04-22 10:54 | -1.53731 | 37.46919 | 24662 ft | 382 kts | 142° |
| 2026-04-22 10:54 | -1.55877 | 37.48486 | 25060 ft | 384 kts | 142° |
| 2026-04-22 10:54 | -1.58034 | 37.50060 | 25070 ft | 383 kts | 142° |
| 2026-04-22 10:55 | -1.60179 | 37.51626 | 25104 ft | 381 kts | 142° |
| 2026-04-22 10:55 | -1.62319 | 37.53188 | 25091 ft | 381 kts | 142° |
| 2026-04-22 10:55 | -1.64454 | 37.54746 | 25099 ft | 380 kts | 142° |
| 2026-04-22 10:55 | -1.66588 | 37.56304 | 25097 ft | 379 kts | 142° |
| 2026-04-22 10:56 | -1.68722 | 37.57862 | 25102 ft | 379 kts | 142° |
| 2026-04-22 10:56 | -1.70845 | 37.59413 | 25093 ft | 379 kts | 142° |
| 2026-04-22 10:56 | -1.72979 | 37.60971 | 25093 ft | 379 kts | 142° |
| 2026-04-22 10:56 | -1.75114 | 37.62529 | 25076 ft | 380 kts | 142° |
| 2026-04-22 10:57 | -1.77238 | 37.64090 | 25076 ft | 380 kts | 140° |
| 2026-04-22 10:57 | -1.79217 | 37.65828 | 25072 ft | 378 kts | 134° |
| 2026-04-22 10:57 | -1.81079 | 37.67692 | 25076 ft | 378 kts | 133° |
| 2026-04-22 10:57 | -1.82923 | 37.69572 | 25066 ft | 379 kts | 133° |
| 2026-04-22 10:58 | -1.84763 | 37.71451 | 25069 ft | 379 kts | 133° |
| 2026-04-22 10:58 | -1.86614 | 37.73329 | 25058 ft | 379 kts | 133° |
| 2026-04-22 10:58 | -1.88469 | 37.75202 | 25059 ft | 379 kts | 133° |
| 2026-04-22 10:58 | -1.90331 | 37.77073 | 25064 ft | 379 kts | 133° |
| 2026-04-22 10:59 | -1.92194 | 37.78939 | 25062 ft | 379 kts | 133° |
| 2026-04-22 10:59 | -1.94062 | 37.80806 | 25046 ft | 380 kts | 133° |
| 2026-04-22 10:59 | -1.95929 | 37.82670 | 25043 ft | 380 kts | 134° |
| 2026-04-22 10:59 | -1.97802 | 37.84539 | 25039 ft | 380 kts | 134° |
| 2026-04-22 11:00 | -1.99674 | 37.86407 | 25047 ft | 380 kts | 133° |
| 2026-04-22 11:00 | -2.01544 | 37.88271 | 25043 ft | 380 kts | 134° |
| 2026-04-22 11:00 | -2.03411 | 37.90134 | 25043 ft | 379 kts | 133° |
| 2026-04-22 11:00 | -2.05276 | 37.91995 | 25030 ft | 379 kts | 133° |
| 2026-04-22 11:01 | -2.07145 | 37.93859 | 25031 ft | 379 kts | 133° |
| 2026-04-22 11:01 | -2.09012 | 37.95721 | 25034 ft | 379 kts | 133° |
| 2026-04-22 11:01 | -2.10871 | 37.97577 | 25027 ft | 379 kts | 133° |
| 2026-04-22 11:01 | -2.12714 | 37.99415 | 25028 ft | 378 kts | 133° |
| 2026-04-22 11:02 | -2.14573 | 38.01269 | 25024 ft | 377 kts | 133° |
| 2026-04-22 11:02 | -2.16425 | 38.03118 | 25018 ft | 377 kts | 134° |
| 2026-04-22 11:02 | -2.18281 | 38.04970 | 25004 ft | 377 kts | 134° |
| 2026-04-22 11:02 | -2.20133 | 38.06818 | 25008 ft | 376 kts | 133° |
| 2026-04-22 11:03 | -2.21984 | 38.08664 | 25021 ft | 375 kts | 134° |
| 2026-04-22 11:03 | -2.23832 | 38.10509 | 25002 ft | 375 kts | 133° |
| 2026-04-22 11:03 | -2.25676 | 38.12350 | 25001 ft | 375 kts | 133° |
| 2026-04-22 11:03 | -2.27518 | 38.14188 | 25006 ft | 375 kts | 133° |
| 2026-04-22 11:04 | -2.29362 | 38.16029 | 25003 ft | 375 kts | 133° |
| 2026-04-22 11:04 | -2.31207 | 38.17870 | 24994 ft | 375 kts | 133° |
| 2026-04-22 11:04 | -2.33053 | 38.19713 | 24994 ft | 375 kts | 133° |
| 2026-04-22 11:04 | -2.34899 | 38.21555 | 24989 ft | 375 kts | 133° |
| 2026-04-22 11:05 | -2.36745 | 38.23398 | 24986 ft | 375 kts | 133° |
| 2026-04-22 11:05 | -2.38588 | 38.25238 | 24991 ft | 375 kts | 133° |
| 2026-04-22 11:05 | -2.40435 | 38.27082 | 24980 ft | 375 kts | 134° |
| 2026-04-22 11:05 | -2.42281 | 38.28925 | 24970 ft | 375 kts | 134° |
| 2026-04-22 11:06 | -2.44128 | 38.30770 | 24967 ft | 376 kts | 134° |
| 2026-04-22 11:06 | -2.45979 | 38.32617 | 24971 ft | 375 kts | 133° |
| 2026-04-22 11:06 | -2.47823 | 38.34458 | 24969 ft | 375 kts | 133° |
| 2026-04-22 11:06 | -2.49667 | 38.36300 | 24961 ft | 375 kts | 133° |
| 2026-04-22 11:07 | -2.51513 | 38.38143 | 24959 ft | 375 kts | 133° |
| 2026-04-22 11:07 | -2.53357 | 38.39984 | 24959 ft | 374 kts | 133° |
| 2026-04-22 11:07 | -2.55198 | 38.41822 | 24948 ft | 374 kts | 133° |
| 2026-04-22 11:07 | -2.57036 | 38.43658 | 24938 ft | 373 kts | 133° |
| 2026-04-22 11:08 | -2.58873 | 38.45493 | 24944 ft | 373 kts | 134° |
| 2026-04-22 11:08 | -2.60706 | 38.47324 | 24942 ft | 372 kts | 133° |
| 2026-04-22 11:08 | -2.62536 | 38.49151 | 24940 ft | 372 kts | 134° |
| 2026-04-22 11:08 | -2.64363 | 38.50976 | 24936 ft | 373 kts | 134° |
| 2026-04-22 11:09 | -2.66205 | 38.52816 | 24948 ft | 373 kts | 133° |
| 2026-04-22 11:09 | -2.68040 | 38.54650 | 24937 ft | 374 kts | 134° |
| 2026-04-22 11:09 | -2.69883 | 38.56491 | 24947 ft | 374 kts | 134° |
| 2026-04-22 11:09 | -2.71722 | 38.58328 | 24944 ft | 375 kts | 134° |
| 2026-04-22 11:10 | -2.73569 | 38.60173 | 24935 ft | 376 kts | 134° |
| 2026-04-22 11:10 | -2.75420 | 38.62023 | 24944 ft | 376 kts | 134° |
| 2026-04-22 11:10 | -2.77269 | 38.63871 | 24943 ft | 376 kts | 134° |
| 2026-04-22 11:10 | -2.79120 | 38.65720 | 24946 ft | 376 kts | 133° |
| 2026-04-22 11:11 | -2.80970 | 38.67569 | 24932 ft | 373 kts | 134° |
| 2026-04-22 11:11 | -2.82762 | 38.69358 | 24806 ft | 365 kts | 134° |
| 2026-04-22 11:11 | -2.84573 | 38.71168 | 24550 ft | 361 kts | 133° |
| 2026-04-22 11:11 | -2.86344 | 38.72937 | 24204 ft | 360 kts | 133° |
| 2026-04-22 11:12 | -2.88108 | 38.74701 | 23863 ft | 357 kts | 134° |
| 2026-04-22 11:12 | -2.89864 | 38.76456 | 23473 ft | 357 kts | 134° |
| 2026-04-22 11:12 | -2.91620 | 38.78212 | 23053 ft | 355 kts | 133° |
| 2026-04-22 11:12 | -2.93339 | 38.79930 | 22663 ft | 353 kts | 133° |
| 2026-04-22 11:13 | -2.95067 | 38.81658 | 22280 ft | 350 kts | 133° |
| 2026-04-22 11:13 | -2.96786 | 38.83376 | 21904 ft | 348 kts | 133° |
| 2026-04-22 11:13 | -2.98507 | 38.85096 | 21550 ft | 346 kts | 133° |
| 2026-04-22 11:13 | -3.00192 | 38.86781 | 21190 ft | 344 kts | 133° |
| 2026-04-22 11:14 | -3.01876 | 38.88465 | 20841 ft | 342 kts | 133° |
| 2026-04-22 11:14 | -3.03551 | 38.90140 | 20480 ft | 340 kts | 133° |
| 2026-04-22 11:14 | -3.05223 | 38.91812 | 20117 ft | 339 kts | 133° |
| 2026-04-22 11:14 | -3.06885 | 38.93474 | 19771 ft | 337 kts | 133° |
| 2026-04-22 11:15 | -3.08539 | 38.95129 | 19398 ft | 336 kts | 133° |
| 2026-04-22 11:15 | -3.10191 | 38.96781 | 19043 ft | 335 kts | 133° |
| 2026-04-22 11:15 | -3.11842 | 38.98433 | 18672 ft | 335 kts | 133° |
| 2026-04-22 11:15 | -3.13485 | 39.00076 | 18310 ft | 334 kts | 133° |
| 2026-04-22 11:16 | -3.15124 | 39.01715 | 17940 ft | 332 kts | 133° |
| 2026-04-22 11:16 | -3.16757 | 39.03349 | 17553 ft | 330 kts | 133° |
| 2026-04-22 11:16 | -3.18377 | 39.04971 | 17186 ft | 328 kts | 133° |
| 2026-04-22 11:16 | -3.19982 | 39.06577 | 16847 ft | 326 kts | 133° |
| 2026-04-22 11:17 | -3.21575 | 39.08170 | 16503 ft | 323 kts | 133° |
| 2026-04-22 11:17 | -3.23160 | 39.09756 | 16157 ft | 320 kts | 133° |
| 2026-04-22 11:17 | -3.24733 | 39.11328 | 15814 ft | 318 kts | 134° |
| 2026-04-22 11:17 | -3.26313 | 39.12865 | 15458 ft | 317 kts | 135° |
| 2026-04-22 11:18 | -3.27905 | 39.14386 | 15127 ft | 314 kts | 135° |
| 2026-04-22 11:18 | -3.29481 | 39.15888 | 14789 ft | 313 kts | 135° |
| 2026-04-22 11:18 | -3.31055 | 39.17389 | 14436 ft | 312 kts | 135° |
| 2026-04-22 11:18 | -3.32618 | 39.18882 | 14117 ft | 311 kts | 135° |
| 2026-04-22 11:19 | -3.34177 | 39.20373 | 13789 ft | 310 kts | 135° |
| 2026-04-22 11:19 | -3.35734 | 39.21863 | 13398 ft | 309 kts | 135° |
| 2026-04-22 11:19 | -3.37264 | 39.23325 | 13065 ft | 307 kts | 135° |
| 2026-04-22 11:19 | -3.38800 | 39.24797 | 12726 ft | 305 kts | 135° |
| 2026-04-22 11:20 | -3.40331 | 39.26263 | 12392 ft | 303 kts | 135° |
| 2026-04-22 11:20 | -3.41847 | 39.27717 | 12072 ft | 301 kts | 135° |
| 2026-04-22 11:20 | -3.43353 | 39.29161 | 11761 ft | 298 kts | 135° |
| 2026-04-22 11:20 | -3.44845 | 39.30590 | 11442 ft | 296 kts | 135° |
| 2026-04-22 11:21 | -3.46321 | 39.32006 | 11118 ft | 294 kts | 135° |
| 2026-04-22 11:21 | -3.47801 | 39.33425 | 10790 ft | 293 kts | 135° |
| 2026-04-22 11:21 | -3.49270 | 39.34833 | 10487 ft | 291 kts | 135° |
| 2026-04-22 11:21 | -3.50722 | 39.36225 | 10188 ft | 289 kts | 135° |
| 2026-04-22 11:22 | -3.52155 | 39.37598 | 10042 ft | 282 kts | 135° |
| 2026-04-22 11:22 | -3.53556 | 39.38942 | 9857 ft | 276 kts | 135° |
| 2026-04-22 11:22 | -3.54942 | 39.40272 | 9544 ft | 276 kts | 135° |
| 2026-04-22 11:22 | -3.56323 | 39.41597 | 9259 ft | 274 kts | 135° |
| 2026-04-22 11:23 | -3.57692 | 39.42910 | 8980 ft | 272 kts | 135° |
| 2026-04-22 11:23 | -3.59057 | 39.44220 | 8686 ft | 271 kts | 135° |
| 2026-04-22 11:23 | -3.60411 | 39.45519 | 8400 ft | 270 kts | 135° |
| 2026-04-22 11:23 | -3.61762 | 39.46814 | 8127 ft | 268 kts | 136° |
| 2026-04-22 11:24 | -3.63102 | 39.48100 | 7839 ft | 267 kts | 136° |
| 2026-04-22 11:24 | -3.64438 | 39.49382 | 7566 ft | 265 kts | 136° |
| 2026-04-22 11:24 | -3.65767 | 39.50657 | 7293 ft | 264 kts | 136° |
| 2026-04-22 11:24 | -3.67093 | 39.51929 | 7010 ft | 263 kts | 136° |
| 2026-04-22 11:25 | -3.68413 | 39.53196 | 6746 ft | 262 kts | 136° |
| 2026-04-22 11:25 | -3.69728 | 39.54458 | 6463 ft | 262 kts | 136° |
| 2026-04-22 11:25 | -3.71047 | 39.55723 | 6166 ft | 263 kts | 137° |
| 2026-04-22 11:25 | -3.72362 | 39.56986 | 5961 ft | 259 kts | 137° |
| 2026-04-22 11:26 | -3.73650 | 39.58222 | 5822 ft | 253 kts | 137° |
| 2026-04-22 11:26 | -3.74899 | 39.59422 | 5722 ft | 244 kts | 137° |
| 2026-04-22 11:26 | -3.76084 | 39.60560 | 5673 ft | 228 kts | 137° |
| 2026-04-22 11:26 | -3.77184 | 39.61618 | 5550 ft | 210 kts | 137° |
| 2026-04-22 11:27 | -3.78148 | 39.62625 | 5423 ft | 193 kts | 127° |
| 2026-04-22 11:27 | -3.78746 | 39.63770 | 5308 ft | 177 kts | 119° |
| 2026-04-22 11:27 | -3.79318 | 39.64810 | 5097 ft | 165 kts | 122° |
| 2026-04-22 11:27 | -3.79861 | 39.65774 | 4914 ft | 154 kts | 123° |
| 2026-04-22 11:28 | -3.80378 | 39.66693 | 4730 ft | 157 kts | 124° |
| 2026-04-22 11:28 | -3.80986 | 39.67759 | 4825 ft | 195 kts | 123° |
| 2026-04-22 11:28 | -3.81673 | 39.68968 | 4594 ft | 204 kts | 123° |
| 2026-04-22 11:28 | -3.82589 | 39.70006 | 4172 ft | 196 kts | 151° |
| 2026-04-22 11:29 | -3.83862 | 39.70121 | 3926 ft | 184 kts | 196° |
| 2026-04-22 11:29 | -3.84979 | 39.69556 | 3701 ft | 172 kts | 200° |
| 2026-04-22 11:29 | -3.86012 | 39.69163 | 3482 ft | 153 kts | 196° |
| 2026-04-22 11:29 | -3.86939 | 39.68722 | 3317 ft | 147 kts | 203° |
| 2026-04-22 11:30 | -3.87842 | 39.68225 | 3131 ft | 150 kts | 205° |
| 2026-04-22 11:30 | -3.88754 | 39.67714 | 2942 ft | 149 kts | 204° |
| 2026-04-22 11:30 | -3.89664 | 39.67203 | 2764 ft | 149 kts | 203° |
| 2026-04-22 11:30 | -3.90535 | 39.66709 | 2577 ft | 136 kts | 204° |
| 2026-04-22 11:31 | -3.91340 | 39.66259 | 2377 ft | 127 kts | 206° |
| 2026-04-22 11:31 | -3.92113 | 39.65822 | 2254 ft | 131 kts | 204° |
| 2026-04-22 11:31 | -3.92914 | 39.65372 | 2073 ft | 130 kts | 203° |
| 2026-04-22 11:31 | -3.93705 | 39.64959 | 1897 ft | 126 kts | 207° |
| 2026-04-22 11:32 | -3.94470 | 39.64504 | 1750 ft | 129 kts | 206° |
| 2026-04-22 11:32 | -3.95250 | 39.64058 | 1556 ft | 129 kts | 206° |
| 2026-04-22 11:32 | -3.96029 | 39.63618 | 1388 ft | 127 kts | 208° |
| 2026-04-22 11:32 | -3.96786 | 39.63179 | 1245 ft | 128 kts | 206° |
| 2026-04-22 11:33 | -3.97572 | 39.62748 | 1075 ft | 129 kts | 204° |
| 2026-04-22 11:33 | -3.98377 | 39.62312 | 931 ft | 132 kts | 212° |
| 2026-04-22 11:33 | -3.99178 | 39.61844 | 725 ft | 132 kts | 209° |
| 2026-04-22 11:33 | -3.99970 | 39.61398 | 564 ft | 129 kts | 210° |
| 2026-04-22 11:34 | -4.00708 | 39.60983 | 388 ft | 119 kts | 211° |
| 2026-04-22 11:34 | -4.01486 | 39.60525 | 654 ft | 136 kts | 212° |
| 2026-04-22 11:34 | -4.02228 | 39.60037 | 1437 ft | 101 kts | 211° |
| 2026-04-22 11:34 | -4.02732 | 39.59738 | 2152 ft | 83 kts | 202° |
| 2026-04-22 11:35 | -4.03454 | 39.59412 | 1875 ft | 158 kts | 199° |
| 2026-04-22 11:35 | -4.04831 | 39.58917 | 1032 ft | 242 kts | 198° |
| 2026-04-22 11:35 | -4.06182 | 39.58300 | 2609 ft | 185 kts | 202° |
| 2026-04-22 11:35 | -4.07332 | 39.57840 | 3640 ft | 186 kts | 197° |
| 2026-04-22 11:36 | -4.08637 | 39.57632 | 3954 ft | 194 kts | 175° |
| 2026-04-22 11:36 | -4.09945 | 39.57950 | 3995 ft | 195 kts | 155° |
| 2026-04-22 11:36 | -4.11080 | 39.58697 | 3698 ft | 200 kts | 139° |
| 2026-04-22 11:36 | -4.11922 | 39.59848 | 3034 ft | 211 kts | 119° |
| 2026-04-22 11:37 | -4.12433 | 39.61261 | 2312 ft | 224 kts | 109° |
| 2026-04-22 11:37 | -4.12698 | 39.62875 | 1738 ft | 232 kts | 97° |
| 2026-04-22 11:37 | -4.12406 | 39.64334 | 2023 ft | 213 kts | 64° |
| 2026-04-22 11:37 | -4.11235 | 39.65313 | 2234 ft | 237 kts | 18° |
| 2026-04-22 11:38 | -4.09578 | 39.65505 | 3052 ft | 244 kts | 10° |
| 2026-04-22 11:38 | -4.08469 | 39.65744 | 3596 ft | 247 kts | 15° |
| 2026-04-22 11:38 | -4.05029 | 39.65603 | 4842 ft | 253 kts | 351° |
| 2026-04-22 11:39 | -4.03301 | 39.65688 | 4998 ft | 249 kts | 20° |
| 2026-04-22 11:39 | -4.01743 | 39.66390 | 5013 ft | 246 kts | 28° |
| 2026-04-22 11:39 | -4.00177 | 39.67098 | 5008 ft | 248 kts | 26° |
| 2026-04-22 11:39 | -3.98565 | 39.67692 | 4985 ft | 248 kts | 10° |
| 2026-04-22 11:40 | -3.96895 | 39.67432 | 5028 ft | 245 kts | 336° |
| 2026-04-22 11:40 | -3.95308 | 39.66800 | 4981 ft | 247 kts | 352° |
| 2026-04-22 11:40 | -3.93620 | 39.66922 | 5002 ft | 246 kts | 21° |
| 2026-04-22 11:40 | -3.92055 | 39.67618 | 5011 ft | 248 kts | 27° |
| 2026-04-22 11:41 | -3.90483 | 39.68329 | 4996 ft | 246 kts | 27° |
| 2026-04-22 11:41 | -3.88929 | 39.69022 | 4996 ft | 245 kts | 26° |
| 2026-04-22 11:41 | -3.87383 | 39.69711 | 5002 ft | 237 kts | 28° |
| 2026-04-22 11:41 | -3.86116 | 39.70620 | 4982 ft | 212 kts | 54° |
| 2026-04-22 11:42 | -3.85189 | 39.71684 | 4979 ft | 200 kts | 51° |
| 2026-04-22 11:42 | -3.84048 | 39.72447 | 4944 ft | 201 kts | 14° |
| 2026-04-22 11:42 | -3.82709 | 39.72242 | 4634 ft | 198 kts | 325° |
| 2026-04-22 11:42 | -3.81981 | 39.71192 | 4233 ft | 178 kts | 274° |
| 2026-04-22 11:43 | -3.81877 | 39.70006 | 3850 ft | 170 kts | 268° |
| 2026-04-22 11:43 | -3.82009 | 39.68873 | 3371 ft | 160 kts | 237° |
| 2026-04-22 11:43 | -3.82765 | 39.68180 | 3013 ft | 143 kts | 206° |
| 2026-04-22 11:43 | -3.83653 | 39.67722 | 2497 ft | 143 kts | 190° |
| 2026-04-22 11:44 | -3.84603 | 39.67759 | 2387 ft | 139 kts | 173° |
| 2026-04-22 11:44 | -3.85577 | 39.67781 | 2251 ft | 140 kts | 180° |
| 2026-04-22 11:44 | -3.86534 | 39.67794 | 2219 ft | 138 kts | 178° |
| 2026-04-22 11:44 | -3.87487 | 39.67823 | 2184 ft | 136 kts | 178° |
| 2026-04-22 11:45 | -3.88450 | 39.67729 | 2185 ft | 142 kts | 198° |
| 2026-04-22 11:45 | -3.89327 | 39.67273 | 2192 ft | 143 kts | 202° |
| 2026-04-22 11:45 | -3.90234 | 39.66839 | 2220 ft | 144 kts | 201° |
| 2026-04-22 11:45 | -3.91114 | 39.66372 | 2182 ft | 142 kts | 203° |
| 2026-04-22 11:46 | -3.91963 | 39.65904 | 2199 ft | 136 kts | 206° |
| 2026-04-22 11:46 | -3.92826 | 39.65421 | 2078 ft | 143 kts | 203° |
| 2026-04-22 11:46 | -3.93654 | 39.64951 | 1950 ft | 129 kts | 203° |
| 2026-04-22 11:46 | -3.94422 | 39.64520 | 1761 ft | 123 kts | 203° |
| 2026-04-22 11:47 | -3.95163 | 39.64104 | 1598 ft | 123 kts | 206° |
| 2026-04-22 11:47 | -3.95947 | 39.63666 | 1437 ft | 133 kts | 207° |
| 2026-04-22 11:47 | -3.96725 | 39.63224 | 1248 ft | 128 kts | 207° |
| 2026-04-22 11:47 | -3.97498 | 39.62769 | 1096 ft | 132 kts | 203° |
| 2026-04-22 11:48 | -3.98317 | 39.62359 | 934 ft | 131 kts | 210° |
| 2026-04-22 11:48 | -3.99079 | 39.61901 | 747 ft | 126 kts | 210° |
| 2026-04-22 11:48 | -3.99848 | 39.61469 | 619 ft | 133 kts | 211° |
| 2026-04-22 11:48 | -4.00642 | 39.61019 | 390 ft | 120 kts | 211° |
| 2026-04-22 11:49 | -4.01432 | 39.60575 | 242 ft | 139 kts | 209° |
| 2026-04-22 11:49 | -4.02207 | 39.60141 | 214 ft | 112 kts | 209° |
| 2026-04-22 11:49 | -4.02716 | 39.59857 | 207 ft | 51 kts | 209° |
| 2026-04-22 11:49 | -4.02926 | 39.59746 | 211 ft | 30 kts | 208° |
| 2026-04-22 11:50 | -4.03103 | 39.59648 | 209 ft | 28 kts | 210° |
| 2026-04-22 11:50 | -4.03261 | 39.59568 | 211 ft | 18 kts | 193° |
| 2026-04-22 11:50 | -4.03325 | 39.59583 | 213 ft | 0 kts | 128° |
| 2026-04-22 11:51 | -4.03328 | 39.59587 | 223 ft | 3 kts | 124° |
| 2026-04-22 11:51 | -4.03326 | 39.59636 | 208 ft | 11 kts | 77° |
| 2026-04-22 11:51 | -4.03303 | 39.59732 | 212 ft | 12 kts | 60° |
| 2026-04-22 11:52 | -4.03216 | 39.59777 | 210 ft | 18 kts | 19° |
| 2026-04-22 11:52 | -4.03092 | 39.59846 | 207 ft | 22 kts | 32° |
| 2026-04-22 11:52 | -4.02979 | 39.59917 | 210 ft | 16 kts | 48° |
| 2026-04-22 11:52 | -4.02997 | 39.60012 | 207 ft | 15 kts | 118° |
| 2026-04-22 11:53 | -4.03022 | 39.60071 | 211 ft | 6 kts | 92° |
| 2026-04-22 11:53 | -4.03015 | 39.60085 | 204 ft | 3 kts | 54° |
| 2026-04-22 11:53 | -4.02992 | 39.60102 | 211 ft | 5 kts | 33° |
| 2026-04-22 11:53 | -4.02973 | 39.60113 | 211 ft | 0 kts | 28° |